Detalii statie SADELLI PRODCOM [00001D03]

Toti senzorii

Date Temperatura solului [C]Precipitatii [mm]Voltaj baterie [mV]Leaf Wetness [Min]HC Air temperature [C]HC Relative humidity [%]Punctul de roua [C]
medieminmaxsumaultimatimpmedieminmaxmediemediemin
2020-01-21 22:00:00 0 0 0.1 0 6668 -1.12 -1.18 -1.06 0 0 0
2020-01-21 23:00:00 0 0 0.1 0 6650 -1.1 -1.17 -1.06 0 0 0
2020-01-22 00:00:00 0 -0.1 0.1 0 6640 -0.97 -1.08 -0.92 0 0 0
2020-01-22 01:00:00 0 0 0.1 0 6650 -0.83 -0.88 -0.78 0 0 0
2020-01-22 02:00:00 0 0 0.1 0 6650 -0.93 -0.98 -0.85 1.16 0
2020-01-22 03:00:00 0 0 0.1 0 6620 -0.87 -0.98 -0.84 27.96 -10 0
2020-01-22 04:00:00 0 0 0.1 0 6650 -0.97 -1.02 -0.87 1.72 -4.7 0
2020-01-22 05:00:00 0 0 0.1 0 6640 -0.88 -0.9 -0.87 0 0 0
2020-01-22 06:00:00 0 0 0.2 0 6650 -0.9 -0.93 -0.9 0 0 0
2020-01-22 07:00:00 0 0 0.2 0 6650 -0.93 -0.96 -0.9 0 0 0
2020-01-22 08:00:00 0.1 0 0.2 0 6630 -0.93 -0.96 -0.9 5.46 -2.9 0
2020-01-22 09:00:00 0 0 0.1 0 6620 -0.92 -0.99 -0.86 4.34 -3 0
2020-01-22 10:00:00 0.1 0 0.2 0 6640 -0.76 -0.83 -0.7 0 0 0
2020-01-22 11:00:00 0.1 0 0.2 0 6688 -0.59 -0.7 -0.5 0.58 0
2020-01-22 12:00:00 0.1 0.1 0.3 0 6748 -0.34 -0.52 -0.22 0 0 0
2020-01-22 13:00:00 0.2 0.1 0.3 0 6786 -0.29 -0.4 -0.23 0 0 0
2020-01-22 14:00:00 0.3 0.2 0.5 0 6756 -0.35 -0.44 -0.28 0 0 0
2020-01-22 15:00:00 0.3 0.2 0.6 0 6738 -0.39 -0.48 -0.34 8.33 0
2020-01-22 16:00:00 0.3 0.3 0.4 0 6708 -0.52 -0.57 -0.47 8.33 0
2020-01-22 17:00:00 0.2 0.1 0.4 0 6660 -0.65 -0.77 -0.5 8.45 -1.6 0
2020-01-22 18:00:00 0.2 0.1 0.3 0 6650 -0.77 -0.8 -0.74 0 0 0
2020-01-22 19:00:00 0.1 0.1 0.3 0 6640 -0.75 -0.8 -0.73 0 0 0
2020-01-22 20:00:00 0.1 0 0.2 0 6640 -0.75 -0.8 -0.71 0 0 0
2020-01-22 21:00:00 0.1 0.1 0.2 0 6640 -0.74 -0.82 -0.65 0 0 0
2020-01-22 22:00:00 0.1 0 0.2 0 6640 -0.69 -0.78 -0.65 0 0 0
2020-01-22 23:00:00 0.1 0.1 0.2 0 6640 -0.77 -0.88 -0.72 8.33 0
2020-01-23 00:00:00 0.1 0 0.2 0 6640 -0.98 -1.15 -0.85 0 0 0
2020-01-23 01:00:00 0.1 0.1 0.2 0 6640 -1.1 -1.13 -1.06 0 0 0
2020-01-23 02:00:00 0.1 0 0.2 0 6640 -1.26 -1.45 -1.17 0 0 0
2020-01-23 03:00:00 0.1 0.1 0.3 0 6640 -1.54 -1.61 -1.46 0 0 0
2020-01-23 04:00:00 0.1 0.1 0.2 0 6630 -2.23 -2.81 -1.67 0 0 0
2020-01-23 05:00:00 0.1 0.1 0.2 0 6640 -2.8 -3 -2.64 0 0 0
2020-01-23 06:00:00 0.1 0.1 0.2 0 6620 -3.65 -4.49 -2.87 0 0 0
2020-01-23 07:00:00 0.1 0.1 0.2 0 6630 -3.82 -4.36 -3.33 0.17 0
2020-01-23 08:00:00 0.1 0.1 0.2 0 6610 -4.24 -4.96 -3.78 0 0 0
2020-01-23 09:00:00 0 0 0.2 0 6660 -4.43 -4.63 -4.11 0 0 0
2020-01-23 10:00:00 0 0 0.1 0 7070 -3.14 -4.23 -1.99 0 0 0
2020-01-23 11:00:00 0 0 0.1 0 7206 -1.42 -1.85 -0.86 0 0 0
2020-01-23 12:00:00 0 0 0.1 0 7226 -0.01 -0.57 0.47 0 0 0
2020-01-23 13:00:00 0 0 0.2 0 7216 1.49 0.67 2.24 0 0 0
2020-01-23 14:00:00 0.2 0 0.5 0 7216 2.58 2 3.09 0 0 0
2020-01-23 15:00:00 0.7 0.5 1 0 7216 3.25 2.71 3.63 0 0 0
2020-01-23 16:00:00 1 0.9 1.1 0 7206 3.18 3.02 3.43 0 0 0
2020-01-23 17:00:00 0.9 0.7 1.1 0 6972 2.07 1.25 2.86 0 0 0
2020-01-23 18:00:00 0.5 0.5 0.7 0 6894 -0.26 -1.08 1.09 0 0 0
2020-01-23 19:00:00 0.4 0.3 0.5 0 6864 -0.89 -1.5 -0.25 0 0 0
2020-01-23 20:00:00 0.3 0.2 0.4 0 6864 -1.77 -2.58 -1.08 0 0 0
2020-01-23 21:00:00 0.2 0.2 0.4 0 6844 -2.29 -2.55 -1.84 0 0 0